F/V Oceanis — FHLH — position and weather

sailwx.info

Track history (hours):
 
Tides and Currents Weather Stations Pressure Air Temp Water Temp Dewpoint Dewpoint Depression Visibility Wind Speed Wind Dir Waves Ship Positions

F/V Oceanis

Last reported at 2017-Jul-19 12:57 UTC. Time now 2017-Jul-22 08:45 UTC.
Position N 44°40' W 001°30'.

Type: Other ship. MMSI: 228385000.

Date/timePositionNaut miles runAvg speedWind from/ knotsBaromVisibWave heightAir tempDewpointWater temp
2017-Jul-19 12:57N 44°40' W 001°30'4 8.7
2017-Jul-19 12:30N 44°37' W 001°25'4 8.4
2017-Jul-19 12:00N 44°35' W 001°20'4 7.2
2017-Jul-19 11:30N 44°35' W 001°15'3 7.0
2017-Jul-19 11:00N 44°38' W 001°14'3 6.9
2017-Jul-19 10:30N 44°40' W 001°10'1 2.1
2017-Jul-19 10:00N 44°39' W 001°09'0 0.0
2017-Jul-19 09:31N 44°39' W 001°09'0 0.0
2017-Jul-19 09:00N 44°39' W 001°09'0 0.0
2017-Jul-19 08:30N 44°39' W 001°09'0 0.1
2017-Jul-19 07:58N 44°39' W 001°09'0 0.0
2017-Jul-19 07:29N 44°39' W 001°09'0 0.0
2017-Jul-19 06:59N 44°39' W 001°09'0 0.0
2017-Jul-19 06:31N 44°39' W 001°09'0 0.0
2017-Jul-19 06:00N 44°39' W 001°09'0 0.0
2017-Jul-19 05:31N 44°39' W 001°09'0 0.0
2017-Jul-19 05:00N 44°39' W 001°09'0 0.0
2017-Jul-19 04:31N 44°39' W 001°09'0 0.0
2017-Jul-19 04:00N 44°39' W 001°09'0 0.0
2017-Jul-19 03:30N 44°39' W 001°09'0 0.0
2017-Jul-19 03:00N 44°39' W 001°09'0 0.0
2017-Jul-19 02:31N 44°39' W 001°09'0 0.0
2017-Jul-19 02:00N 44°39' W 001°09'0 0.0
2017-Jul-19 01:30N 44°39' W 001°09'0 0.0
2017-Jul-19 01:00N 44°39' W 001°09'0 0.0
2017-Jul-19 00:25N 44°39' W 001°09'0 0.0
2017-Jul-19 00:00N 44°39' W 001°09'0 0.0
2017-Jul-18 23:25N 44°39' W 001°09'0 0.0
2017-Jul-18 22:59N 44°39' W 001°09'0 0.0
2017-Jul-18 22:31N 44°39' W 001°09'2 4.4
2017-Jul-18 22:01N 44°40' W 001°12'4 8.2
2017-Jul-18 21:31N 44°36' W 001°14'4 7.3
2017-Jul-18 21:00N 44°34' W 001°18'4 7.3
2017-Jul-18 20:30N 44°33' W 001°23'3 6.9
2017-Jul-18 20:00N 44°33' W 001°28'3 7.0
2017-Jul-18 19:30N 44°32' W 001°33'6 6.4
2017-Jul-18 18:36N 44°31' W 001°41'4 6.5
2017-Jul-18 17:58N 44°31' W 001°47'3 6.9
2017-Jul-18 17:31N 44°31' W 001°51'4 7.1
2017-Jul-18 17:01N 44°31' W 001°56'4 7.2
2017-Jul-18 16:30N 44°31' W 002°01'26 3.3
2017-Jul-18 08:25N 44°57' W 002°03'4 8.1
2017-Jul-18 07:56N 45°01' W 002°01'1 1.3
2017-Jul-18 06:54N 44°59' W 002°01'3 7.5
2017-Jul-18 06:30N 45°02' W 002°02'28 0.8
2017-Jul-16 19:14N 44°35' W 002°12'2 7.3
2017-Jul-16 18:58N 44°36' W 002°15'14 3.6
2017-Jul-16 14:58N 44°36' W 002°35'11 1.6
2017-Jul-16 08:05N 44°42' W 002°47'0 5.3
2017-Jul-16 08:00N 44°42' W 002°47'2 5.0
2017-Jul-16 07:30N 44°42' W 002°51'2 3.5
2017-Jul-16 06:59N 44°41' W 002°53'1 2.2
2017-Jul-16 06:30N 44°40' W 002°54'3 6.3
2017-Jul-16 06:00N 44°39' W 002°58'3 6.4
2017-Jul-16 05:30N 44°36' W 002°57'3 5.0
2017-Jul-16 04:56N 44°38' W 002°55'0 0.7
2017-Jul-16 04:28N 44°38' W 002°55'0 0.3
2017-Jul-16 03:57N 44°38' W 002°55'0 0.6
2017-Jul-16 03:18N 44°38' W 002°54'0 0.7
2017-Jul-16 03:00N 44°38' W 002°54'1 0.9
2017-Jul-16 02:19N 44°38' W 002°53'0 1.0
2017-Jul-16 02:00N 44°38' W 002°53'1 1.1
2017-Jul-16 01:16N 44°38' W 002°52'0 1.1
2017-Jul-16 01:00N 44°38' W 002°51'1 1.1
2017-Jul-16 00:30N 44°38' W 002°50'5 1.5
2017-Jul-15 21:17N 44°40' W 002°45'1 1.4
2017-Jul-15 20:54N 44°40' W 002°44'55 2.8
2017-Jul-15 01:26N 44°29' W 001°28'4 8.3
2017-Jul-15 00:57N 44°31' W 001°23'4 8.6
2017-Jul-15 00:30N 44°33' W 001°19'5 9.2
2017-Jul-15 00:00N 44°36' W 001°14'5 9.2
2017-Jul-14 23:30N 44°40' W 001°10'1 2.7
2017-Jul-14 23:01N 44°39' W 001°09'0 0.0
2017-Jul-14 22:30N 44°39' W 001°09'0 0.0
2017-Jul-14 22:00N 44°39' W 001°09'0 0.0
2017-Jul-14 21:30N 44°39' W 001°09'0 0.0
2017-Jul-14 21:00N 44°39' W 001°09'0 0.0
2017-Jul-14 20:31N 44°39' W 001°09'0 0.0
2017-Jul-14 20:00N 44°39' W 001°09'0 0.0
2017-Jul-14 19:31N 44°39' W 001°09'0 0.0
2017-Jul-14 19:00N 44°39' W 001°09'0 0.0
2017-Jul-14 18:30N 44°39' W 001°09'0 0.0
2017-Jul-14 18:00N 44°39' W 001°09'0 0.0
2017-Jul-14 17:30N 44°39' W 001°09'0 0.0
2017-Jul-14 17:01N 44°39' W 001°09'0 0.0
2017-Jul-14 16:31N 44°39' W 001°09'0 0.0
2017-Jul-14 16:00N 44°39' W 001°09'0 0.0
2017-Jul-14 15:30N 44°39' W 001°09'0 0.0
2017-Jul-14 15:00N 44°39' W 001°09'0 0.0
2017-Jul-14 14:30N 44°39' W 001°09'0 0.1
2017-Jul-14 14:00N 44°39' W 001°09'0 0.0
2017-Jul-14 13:30N 44°39' W 001°09'0 0.1
2017-Jul-14 13:00N 44°39' W 001°09'0 0.0
2017-Jul-14 12:31N 44°39' W 001°09'0 0.0
2017-Jul-14 12:00N 44°39' W 001°09'0 0.0
2017-Jul-14 11:30N 44°39' W 001°09'0 0.0
2017-Jul-14 11:00N 44°39' W 001°09'0 0.0
2017-Jul-14 10:30N 44°39' W 001°09'0 0.0
2017-Jul-14 10:00N 44°39' W 001°09'0 0.0
2017-Jul-14 09:30N 44°39' W 001°09'0 0.0
2017-Jul-14 09:00N 44°39' W 001°09'0 0.0
2017-Jul-14 08:30N 44°39' W 001°09'0 0.0
2017-Jul-14 08:00N 44°39' W 001°09'0 0.0
2017-Jul-14 07:30N 44°39' W 001°09'0 0.0
2017-Jul-14 07:00N 44°39' W 001°09'0 0.0
2017-Jul-14 06:30N 44°39' W 001°09'0 0.0
2017-Jul-14 05:58N 44°39' W 001°09'0 0.0
2017-Jul-14 05:30N 44°39' W 001°09'0 0.0
2017-Jul-14 05:01N 44°39' W 001°09'0 0.0
2017-Jul-14 04:30N 44°39' W 001°09'0 0.0
2017-Jul-14 04:01N 44°39' W 001°09'0 0.0
2017-Jul-14 03:30N 44°39' W 001°09'0 0.0
2017-Jul-14 03:00N 44°39' W 001°09'0 0.0
2017-Jul-14 02:31N 44°39' W 001°09'0 0.0
2017-Jul-14 02:00N 44°39' W 001°09'0 0.0
2017-Jul-14 01:29N 44°39' W 001°09'0 0.0
2017-Jul-14 01:00N 44°39' W 001°09'0 0.0
2017-Jul-14 00:30N 44°39' W 001°09'0 0.0
2017-Jul-14 00:00N 44°39' W 001°09'0 0.0
2017-Jul-13 23:30N 44°39' W 001°09'0 0.0
2017-Jul-13 23:00N 44°39' W 001°09'0 0.0
2017-Jul-13 22:25N 44°39' W 001°09'0 0.0
2017-Jul-13 22:00N 44°39' W 001°09'0 0.0
2017-Jul-13 21:30N 44°39' W 001°09'0 0.0
2017-Jul-13 21:00N 44°39' W 001°09'0 0.0
2017-Jul-13 20:31N 44°39' W 001°09'0 0.0
2017-Jul-13 20:00N 44°39' W 001°09'0 0.0
2017-Jul-13 19:30N 44°39' W 001°09'0 0.0
2017-Jul-13 19:00N 44°39' W 001°09'0 0.0
2017-Jul-13 18:30N 44°39' W 001°09'0 0.0
2017-Jul-13 18:01N 44°39' W 001°09'0 0.0
2017-Jul-13 17:30N 44°39' W 001°09'0 0.0
2017-Jul-13 17:00N 44°39' W 001°09'0 0.0
2017-Jul-13 16:30N 44°39' W 001°09'0 0.0
2017-Jul-13 16:01N 44°39' W 001°09'0 0.0
2017-Jul-13 15:30N 44°39' W 001°09'0 0.0
2017-Jul-13 15:00N 44°39' W 001°09'0 0.0
2017-Jul-13 14:30N 44°39' W 001°09'0 0.0
2017-Jul-13 14:00N 44°39' W 001°09'0 0.0
2017-Jul-13 13:31N 44°39' W 001°09'0 0.0
2017-Jul-13 13:00N 44°39' W 001°09'0 0.0
2017-Jul-13 12:30N 44°39' W 001°09'0 0.0
2017-Jul-13 12:00N 44°39' W 001°09'0 0.0
2017-Jul-13 11:31N 44°39' W 001°09'0 0.0
2017-Jul-13 11:00N 44°39' W 001°09'0 0.0
2017-Jul-13 10:31N 44°39' W 001°09'0 0.0
2017-Jul-13 09:59N 44°39' W 001°09'0 0.0
2017-Jul-13 09:30N 44°39' W 001°09'0 0.0
2017-Jul-13 09:00N 44°39' W 001°09'0 0.0
2017-Jul-13 08:30N 44°39' W 001°09'0 0.0
2017-Jul-13 08:00N 44°39' W 001°09'0 0.0
2017-Jul-13 07:30N 44°39' W 001°09'0 0.0
2017-Jul-13 07:00N 44°39' W 001°09'0 0.0
2017-Jul-13 06:30N 44°39' W 001°09'0 0.0
2017-Jul-13 06:00N 44°39' W 001°09'0 0.0
2017-Jul-13 05:31N 44°39' W 001°09'0 0.0
2017-Jul-13 05:00N 44°39' W 001°09'0 0.0
2017-Jul-13 04:30N 44°39' W 001°09'0 0.0
2017-Jul-13 04:00N 44°39' W 001°09'0 0.0
2017-Jul-13 03:30N 44°39' W 001°09'0 0.0
2017-Jul-13 02:49N 44°39' W 001°09'0 0.0
2017-Jul-13 02:30N 44°39' W 001°09'0 0.0
2017-Jul-13 02:00N 44°39' W 001°09'3 6.6
2017-Jul-13 01:30N 44°39' W 001°13'4 8.3
2017-Jul-13 01:00N 44°35' W 001°15'3 6.4
2017-Jul-13 00:30N 44°35' W 001°20'4 7.8
2017-Jul-13 00:00N 44°36' W 001°25'4 8.0
2017-Jul-12 23:31N 44°37' W 001°30'5 8.1
2017-Jul-12 22:56N 44°38' W 001°37'3 8.0
2017-Jul-12 22:31N 44°38' W 001°41'  
Track history (hours):
 
Tides and Currents Weather Stations Pressure Air Temp Water Temp Dewpoint Dewpoint Depression Visibility Wind Speed Wind Dir Waves Ship Positions

F/V Oceanis

Last reported at 2017-Jul-19 12:57 UTC. Time now 2017-Jul-22 08:45 UTC.
Position N 44°40' W 001°30'.

Type: Other ship. MMSI: 228385000.

Date/timePositionNaut miles runAvg speedWind from/ knotsBaromVisibWave heightAir tempDewpointWater temp
2017-Jul-19 12:57N 44°40' W 001°30'4 8.7
2017-Jul-19 12:30N 44°37' W 001°25'4 8.4
2017-Jul-19 12:00N 44°35' W 001°20'4 7.2
2017-Jul-19 11:30N 44°35' W 001°15'3 7.0
2017-Jul-19 11:00N 44°38' W 001°14'3 6.9
2017-Jul-19 10:30N 44°40' W 001°10'1 2.1
2017-Jul-19 10:00N 44°39' W 001°09'0 0.0
2017-Jul-19 09:31N 44°39' W 001°09'0 0.0
2017-Jul-19 09:00N 44°39' W 001°09'0 0.0
2017-Jul-19 08:30N 44°39' W 001°09'0 0.1
2017-Jul-19 07:58N 44°39' W 001°09'0 0.0
2017-Jul-19 07:29N 44°39' W 001°09'0 0.0
2017-Jul-19 06:59N 44°39' W 001°09'0 0.0
2017-Jul-19 06:31N 44°39' W 001°09'0 0.0
2017-Jul-19 06:00N 44°39' W 001°09'0 0.0
2017-Jul-19 05:31N 44°39' W 001°09'0 0.0
2017-Jul-19 05:00N 44°39' W 001°09'0 0.0
2017-Jul-19 04:31N 44°39' W 001°09'0 0.0
2017-Jul-19 04:00N 44°39' W 001°09'0 0.0
2017-Jul-19 03:30N 44°39' W 001°09'0 0.0
2017-Jul-19 03:00N 44°39' W 001°09'0 0.0
2017-Jul-19 02:31N 44°39' W 001°09'0 0.0
2017-Jul-19 02:00N 44°39' W 001°09'0 0.0
2017-Jul-19 01:30N 44°39' W 001°09'0 0.0
2017-Jul-19 01:00N 44°39' W 001°09'0 0.0
2017-Jul-19 00:25N 44°39' W 001°09'0 0.0
2017-Jul-19 00:00N 44°39' W 001°09'0 0.0
2017-Jul-18 23:25N 44°39' W 001°09'0 0.0
2017-Jul-18 22:59N 44°39' W 001°09'0 0.0
2017-Jul-18 22:31N 44°39' W 001°09'2 4.4
2017-Jul-18 22:01N 44°40' W 001°12'4 8.2
2017-Jul-18 21:31N 44°36' W 001°14'4 7.3
2017-Jul-18 21:00N 44°34' W 001°18'4 7.3
2017-Jul-18 20:30N 44°33' W 001°23'3 6.9
2017-Jul-18 20:00N 44°33' W 001°28'3 7.0
2017-Jul-18 19:30N 44°32' W 001°33'6 6.4
2017-Jul-18 18:36N 44°31' W 001°41'4 6.5
2017-Jul-18 17:58N 44°31' W 001°47'3 6.9
2017-Jul-18 17:31N 44°31' W 001°51'4 7.1
2017-Jul-18 17:01N 44°31' W 001°56'4 7.2
2017-Jul-18 16:30N 44°31' W 002°01'26 3.3
2017-Jul-18 08:25N 44°57' W 002°03'4 8.1
2017-Jul-18 07:56N 45°01' W 002°01'1 1.3
2017-Jul-18 06:54N 44°59' W 002°01'3 7.5
2017-Jul-18 06:30N 45°02' W 002°02'28 0.8
2017-Jul-16 19:14N 44°35' W 002°12'2 7.3
2017-Jul-16 18:58N 44°36' W 002°15'14 3.6
2017-Jul-16 14:58N 44°36' W 002°35'11 1.6
2017-Jul-16 08:05N 44°42' W 002°47'0 5.3
2017-Jul-16 08:00N 44°42' W 002°47'2 5.0
2017-Jul-16 07:30N 44°42' W 002°51'2 3.5
2017-Jul-16 06:59N 44°41' W 002°53'1 2.2
2017-Jul-16 06:30N 44°40' W 002°54'3 6.3
2017-Jul-16 06:00N 44°39' W 002°58'3 6.4
2017-Jul-16 05:30N 44°36' W 002°57'3 5.0
2017-Jul-16 04:56N 44°38' W 002°55'0 0.7
2017-Jul-16 04:28N 44°38' W 002°55'0 0.3
2017-Jul-16 03:57N 44°38' W 002°55'0 0.6
2017-Jul-16 03:18N 44°38' W 002°54'0 0.7
2017-Jul-16 03:00N 44°38' W 002°54'1 0.9
2017-Jul-16 02:19N 44°38' W 002°53'0 1.0
2017-Jul-16 02:00N 44°38' W 002°53'1 1.1
2017-Jul-16 01:16N 44°38' W 002°52'0 1.1
2017-Jul-16 01:00N 44°38' W 002°51'1 1.1
2017-Jul-16 00:30N 44°38' W 002°50'5 1.5
2017-Jul-15 21:17N 44°40' W 002°45'1 1.4
2017-Jul-15 20:54N 44°40' W 002°44'55 2.8
2017-Jul-15 01:26N 44°29' W 001°28'4 8.3
2017-Jul-15 00:57N 44°31' W 001°23'4 8.6
2017-Jul-15 00:30N 44°33' W 001°19'5 9.2
2017-Jul-15 00:00N 44°36' W 001°14'5 9.2
2017-Jul-14 23:30N 44°40' W 001°10'1 2.7
2017-Jul-14 23:01N 44°39' W 001°09'0 0.0
2017-Jul-14 22:30N 44°39' W 001°09'0 0.0
2017-Jul-14 22:00N 44°39' W 001°09'0 0.0
2017-Jul-14 21:30N 44°39' W 001°09'0 0.0
2017-Jul-14 21:00N 44°39' W 001°09'0 0.0
2017-Jul-14 20:31N 44°39' W 001°09'0 0.0
2017-Jul-14 20:00N 44°39' W 001°09'0 0.0
2017-Jul-14 19:31N 44°39' W 001°09'0 0.0
2017-Jul-14 19:00N 44°39' W 001°09'0 0.0
2017-Jul-14 18:30N 44°39' W 001°09'0 0.0
2017-Jul-14 18:00N 44°39' W 001°09'0 0.0
2017-Jul-14 17:30N 44°39' W 001°09'0 0.0
2017-Jul-14 17:01N 44°39' W 001°09'0 0.0
2017-Jul-14 16:31N 44°39' W 001°09'0 0.0
2017-Jul-14 16:00N 44°39' W 001°09'0 0.0
2017-Jul-14 15:30N 44°39' W 001°09'0 0.0
2017-Jul-14 15:00N 44°39' W 001°09'0 0.0
2017-Jul-14 14:30N 44°39' W 001°09'0 0.1
2017-Jul-14 14:00N 44°39' W 001°09'0 0.0
2017-Jul-14 13:30N 44°39' W 001°09'0 0.1
2017-Jul-14 13:00N 44°39' W 001°09'0 0.0
2017-Jul-14 12:31N 44°39' W 001°09'0 0.0
2017-Jul-14 12:00N 44°39' W 001°09'0 0.0
2017-Jul-14 11:30N 44°39' W 001°09'0 0.0
2017-Jul-14 11:00N 44°39' W 001°09'0 0.0
2017-Jul-14 10:30N 44°39' W 001°09'0 0.0
2017-Jul-14 10:00N 44°39' W 001°09'0 0.0
2017-Jul-14 09:30N 44°39' W 001°09'0 0.0
2017-Jul-14 09:00N 44°39' W 001°09'0 0.0
2017-Jul-14 08:30N 44°39' W 001°09'0 0.0
2017-Jul-14 08:00N 44°39' W 001°09'0 0.0
2017-Jul-14 07:30N 44°39' W 001°09'0 0.0
2017-Jul-14 07:00N 44°39' W 001°09'0 0.0
2017-Jul-14 06:30N 44°39' W 001°09'0 0.0
2017-Jul-14 05:58N 44°39' W 001°09'0 0.0
2017-Jul-14 05:30N 44°39' W 001°09'0 0.0
2017-Jul-14 05:01N 44°39' W 001°09'0 0.0
2017-Jul-14 04:30N 44°39' W 001°09'0 0.0
2017-Jul-14 04:01N 44°39' W 001°09'0 0.0
2017-Jul-14 03:30N 44°39' W 001°09'0 0.0
2017-Jul-14 03:00N 44°39' W 001°09'0 0.0
2017-Jul-14 02:31N 44°39' W 001°09'0 0.0
2017-Jul-14 02:00N 44°39' W 001°09'0 0.0
2017-Jul-14 01:29N 44°39' W 001°09'0 0.0
2017-Jul-14 01:00N 44°39' W 001°09'0 0.0
2017-Jul-14 00:30N 44°39' W 001°09'0 0.0
2017-Jul-14 00:00N 44°39' W 001°09'0 0.0
2017-Jul-13 23:30N 44°39' W 001°09'0 0.0
2017-Jul-13 23:00N 44°39' W 001°09'0 0.0
2017-Jul-13 22:25N 44°39' W 001°09'0 0.0
2017-Jul-13 22:00N 44°39' W 001°09'0 0.0
2017-Jul-13 21:30N 44°39' W 001°09'0 0.0
2017-Jul-13 21:00N 44°39' W 001°09'0 0.0
2017-Jul-13 20:31N 44°39' W 001°09'0 0.0
2017-Jul-13 20:00N 44°39' W 001°09'0 0.0
2017-Jul-13 19:30N 44°39' W 001°09'0 0.0
2017-Jul-13 19:00N 44°39' W 001°09'0 0.0
2017-Jul-13 18:30N 44°39' W 001°09'0 0.0
2017-Jul-13 18:01N 44°39' W 001°09'0 0.0
2017-Jul-13 17:30N 44°39' W 001°09'0 0.0
2017-Jul-13 17:00N 44°39' W 001°09'0 0.0
2017-Jul-13 16:30N 44°39' W 001°09'0 0.0
2017-Jul-13 16:01N 44°39' W 001°09'0 0.0
2017-Jul-13 15:30N 44°39' W 001°09'0 0.0
2017-Jul-13 15:00N 44°39' W 001°09'0 0.0
2017-Jul-13 14:30N 44°39' W 001°09'0 0.0
2017-Jul-13 14:00N 44°39' W 001°09'0 0.0
2017-Jul-13 13:31N 44°39' W 001°09'0 0.0
2017-Jul-13 13:00N 44°39' W 001°09'0 0.0
2017-Jul-13 12:30N 44°39' W 001°09'0 0.0
2017-Jul-13 12:00N 44°39' W 001°09'0 0.0
2017-Jul-13 11:31N 44°39' W 001°09'0 0.0
2017-Jul-13 11:00N 44°39' W 001°09'0 0.0
2017-Jul-13 10:31N 44°39' W 001°09'0 0.0
2017-Jul-13 09:59N 44°39' W 001°09'0 0.0
2017-Jul-13 09:30N 44°39' W 001°09'0 0.0
2017-Jul-13 09:00N 44°39' W 001°09'0 0.0
2017-Jul-13 08:30N 44°39' W 001°09'0 0.0
2017-Jul-13 08:00N 44°39' W 001°09'0 0.0
2017-Jul-13 07:30N 44°39' W 001°09'0 0.0
2017-Jul-13 07:00N 44°39' W 001°09'0 0.0
2017-Jul-13 06:30N 44°39' W 001°09'0 0.0
2017-Jul-13 06:00N 44°39' W 001°09'0 0.0
2017-Jul-13 05:31N 44°39' W 001°09'0 0.0
2017-Jul-13 05:00N 44°39' W 001°09'0 0.0
2017-Jul-13 04:30N 44°39' W 001°09'0 0.0
2017-Jul-13 04:00N 44°39' W 001°09'0 0.0
2017-Jul-13 03:30N 44°39' W 001°09'0 0.0
2017-Jul-13 02:49N 44°39' W 001°09'0 0.0
2017-Jul-13 02:30N 44°39' W 001°09'0 0.0
2017-Jul-13 02:00N 44°39' W 001°09'3 6.6
2017-Jul-13 01:30N 44°39' W 001°13'4 8.3
2017-Jul-13 01:00N 44°35' W 001°15'3 6.4
2017-Jul-13 00:30N 44°35' W 001°20'4 7.8
2017-Jul-13 00:00N 44°36' W 001°25'4 8.0
2017-Jul-12 23:31N 44°37' W 001°30'5 8.1
2017-Jul-12 22:56N 44°38' W 001°37'3 8.0
2017-Jul-12 22:31N 44°38' W 001°41'  

Dump ship's entire track history